Battletown, Kentucky
Current Conditions -  °F | °C
As of 10:58 PM on Saturday 22 Nov 2014 (Local Time) from KFTK Reporting Station
Scattered Clouds Scattered Clouds  
Wind Chill: 47°   Ceiling: Unl
Heat Index: 49°   Visibility: 10mi
Dew Point: 33°   Wind: 5mph
Humidity: 54%   Direction: 150°SSE
Pressure: 30.05"   Gusts: NA
Location:  38.06°N, 86.29°W
Report Text: KFTK 230358Z AUTO 15004KT 10SM SCT120 09/01 A3005 RMK AO2 SLP179 T00930005
Loading
Personal Weather Stations






























Interactive Weather Map New forecast layout! Learn more

10-Day Weather Forecast

Advertisements
Track Severe Weather on mobile